sensor_id;sensor_type;location;lat;lon;timestamp;temperature;humidity
3756;DHT22;1893;52.526;13.360;2023-02-22T00:01:13;8.10;99.90
3756;DHT22;1893;52.526;13.360;2023-02-22T00:03:57;8.10;99.90
3756;DHT22;1893;52.526;13.360;2023-02-22T00:06:23;8.10;99.90
3756;DHT22;1893;52.526;13.360;2023-02-22T00:08:50;8.10;99.90
3756;DHT22;1893;52.526;13.360;2023-02-22T00:11:17;8.00;99.90
3756;DHT22;1893;52.526;13.360;2023-02-22T00:13:43;8.00;99.90
3756;DHT22;1893;52.526;13.360;2023-02-22T00:16:16;8.10;99.90
3756;DHT22;1893;52.526;13.360;2023-02-22T00:18:42;8.10;99.90
3756;DHT22;1893;52.526;13.360;2023-02-22T00:21:09;8.00;99.90
3756;DHT22;1893;52.526;13.360;2023-02-22T00:23:38;8.00;99.90
3756;DHT22;1893;52.526;13.360;2023-02-22T00:26:05;8.00;99.90
3756;DHT22;1893;52.526;13.360;2023-02-22T00:28:30;8.10;99.90
3756;DHT22;1893;52.526;13.360;2023-02-22T00:30:56;8.00;99.90
3756;DHT22;1893;52.526;13.360;2023-02-22T00:33:24;8.00;99.90
3756;DHT22;1893;52.526;13.360;2023-02-22T00:35:49;7.90;99.90
3756;DHT22;1893;52.526;13.360;2023-02-22T00:38:17;8.00;99.90
3756;DHT22;1893;52.526;13.360;2023-02-22T00:40:42;8.10;99.90
3756;DHT22;1893;52.526;13.360;2023-02-22T00:43:10;8.00;99.90
3756;DHT22;1893;52.526;13.360;2023-02-22T00:45:36;8.10;99.90
3756;DHT22;1893;52.526;13.360;2023-02-22T00:48:04;8.10;99.90
3756;DHT22;1893;52.526;13.360;2023-02-22T00:50:30;8.00;99.90
3756;DHT22;1893;52.526;13.360;2023-02-22T00:52:58;8.00;99.90
3756;DHT22;1893;52.526;13.360;2023-02-22T00:55:27;7.90;99.90
3756;DHT22;1893;52.526;13.360;2023-02-22T00:57:53;7.90;99.90
3756;DHT22;1893;52.526;13.360;2023-02-22T01:00:23;7.80;99.90
3756;DHT22;1893;52.526;13.360;2023-02-22T01:02:50;7.70;99.90
3756;DHT22;1893;52.526;13.360;2023-02-22T01:05:18;7.60;99.90
3756;DHT22;1893;52.526;13.360;2023-02-22T01:07:44;7.60;99.90
3756;DHT22;1893;52.526;13.360;2023-02-22T01:10:11;7.60;99.90
3756;DHT22;1893;52.526;13.360;2023-02-22T01:12:37;7.70;99.90
3756;DHT22;1893;52.526;13.360;2023-02-22T01:15:07;7.70;99.90
3756;DHT22;1893;52.526;13.360;2023-02-22T01:17:35;7.70;99.90
3756;DHT22;1893;52.526;13.360;2023-02-22T01:20:03;7.70;99.90
3756;DHT22;1893;52.526;13.360;2023-02-22T01:22:34;7.70;99.90
3756;DHT22;1893;52.526;13.360;2023-02-22T01:25:02;7.70;99.90
3756;DHT22;1893;52.526;13.360;2023-02-22T01:27:28;7.70;99.90
3756;DHT22;1893;52.526;13.360;2023-02-22T01:29:53;7.70;99.90
3756;DHT22;1893;52.526;13.360;2023-02-22T01:32:19;7.60;99.90
3756;DHT22;1893;52.526;13.360;2023-02-22T01:34:44;7.60;99.90
3756;DHT22;1893;52.526;13.360;2023-02-22T01:37:10;7.50;99.90
3756;DHT22;1893;52.526;13.360;2023-02-22T01:39:36;7.40;99.90
3756;DHT22;1893;52.526;13.360;2023-02-22T01:42:02;7.40;99.90
3756;DHT22;1893;52.526;13.360;2023-02-22T01:44:32;7.20;99.90
3756;DHT22;1893;52.526;13.360;2023-02-22T01:47:01;7.10;99.90
3756;DHT22;1893;52.526;13.360;2023-02-22T01:49:44;7.20;99.90
3756;DHT22;1893;52.526;13.360;2023-02-22T01:52:14;7.20;99.90
3756;DHT22;1893;52.526;13.360;2023-02-22T01:54:44;7.10;99.90
3756;DHT22;1893;52.526;13.360;2023-02-22T01:57:29;6.90;99.90
3756;DHT22;1893;52.526;13.360;2023-02-22T02:00:01;6.90;99.90
3756;DHT22;1893;52.526;13.360;2023-02-22T02:02:35;6.90;99.90
3756;DHT22;1893;52.526;13.360;2023-02-22T02:05:01;6.80;99.90
3756;DHT22;1893;52.526;13.360;2023-02-22T02:07:26;6.80;99.90
3756;DHT22;1893;52.526;13.360;2023-02-22T02:09:59;6.70;99.90
3756;DHT22;1893;52.526;13.360;2023-02-22T02:12:28;6.80;99.90
3756;DHT22;1893;52.526;13.360;2023-02-22T02:17:46;6.90;99.90
3756;DHT22;1893;52.526;13.360;2023-02-22T02:20:54;6.90;99.90
3756;DHT22;1893;52.526;13.360;2023-02-22T02:37:36;7.20;99.90
3756;DHT22;1893;52.526;13.360;2023-02-22T02:40:16;7.20;99.90
3756;DHT22;1893;52.526;13.360;2023-02-22T02:42:56;7.10;99.90
3756;DHT22;1893;52.526;13.360;2023-02-22T02:48:08;7.00;99.90
3756;DHT22;1893;52.526;13.360;2023-02-22T02:50:41;6.90;99.90
3756;DHT22;1893;52.526;13.360;2023-02-22T02:53:09;6.80;99.90
3756;DHT22;1893;52.526;13.360;2023-02-22T02:55:36;6.80;99.90
3756;DHT22;1893;52.526;13.360;2023-02-22T02:58:06;6.70;99.90
3756;DHT22;1893;52.526;13.360;2023-02-22T03:00:39;6.70;99.90
3756;DHT22;1893;52.526;13.360;2023-02-22T03:03:31;6.60;99.90
3756;DHT22;1893;52.526;13.360;2023-02-22T03:21:20;6.60;99.90
3756;DHT22;1893;52.526;13.360;2023-02-22T03:25:49;6.70;99.90
3756;DHT22;1893;52.526;13.360;2023-02-22T03:28:19;6.80;99.90
3756;DHT22;1893;52.526;13.360;2023-02-22T03:30:58;6.80;99.90
3756;DHT22;1893;52.526;13.360;2023-02-22T03:33:48;6.90;99.90
3756;DHT22;1893;52.526;13.360;2023-02-22T03:36:27;7.00;99.90
3756;DHT22;1893;52.526;13.360;2023-02-22T03:38:57;7.00;99.90
3756;DHT22;1893;52.526;13.360;2023-02-22T03:41:25;7.00;99.90
3756;DHT22;1893;52.526;13.360;2023-02-22T03:44:04;7.00;99.90
3756;DHT22;1893;52.526;13.360;2023-02-22T03:46:31;7.10;99.90
3756;DHT22;1893;52.526;13.360;2023-02-22T03:49:11;7.10;99.90
3756;DHT22;1893;52.526;13.360;2023-02-22T03:51:38;7.10;99.90
3756;DHT22;1893;52.526;13.360;2023-02-22T03:54:05;7.10;99.90
3756;DHT22;1893;52.526;13.360;2023-02-22T03:56:34;7.10;99.90
3756;DHT22;1893;52.526;13.360;2023-02-22T03:59:06;7.10;99.90
3756;DHT22;1893;52.526;13.360;2023-02-22T04:04:54;7.10;99.90
3756;DHT22;1893;52.526;13.360;2023-02-22T04:07:20;7.10;99.90
3756;DHT22;1893;52.526;13.360;2023-02-22T04:09:45;7.10;99.90
3756;DHT22;1893;52.526;13.360;2023-02-22T04:12:11;7.10;99.90
3756;DHT22;1893;52.526;13.360;2023-02-22T04:14:37;7.00;99.90
3756;DHT22;1893;52.526;13.360;2023-02-22T04:17:02;6.90;99.90
3756;DHT22;1893;52.526;13.360;2023-02-22T04:19:28;6.90;99.90
3756;DHT22;1893;52.526;13.360;2023-02-22T04:21:53;6.90;99.90
3756;DHT22;1893;52.526;13.360;2023-02-22T04:24:20;6.80;99.90
3756;DHT22;1893;52.526;13.360;2023-02-22T04:26:45;6.80;99.90
3756;DHT22;1893;52.526;13.360;2023-02-22T04:29:11;6.80;99.90
3756;DHT22;1893;52.526;13.360;2023-02-22T04:31:37;6.80;99.90
3756;DHT22;1893;52.526;13.360;2023-02-22T04:34:02;6.70;99.90
3756;DHT22;1893;52.526;13.360;2023-02-22T04:36:28;6.70;99.90
3756;DHT22;1893;52.526;13.360;2023-02-22T04:38:57;6.70;99.90
3756;DHT22;1893;52.526;13.360;2023-02-22T04:41:22;6.70;99.90
3756;DHT22;1893;52.526;13.360;2023-02-22T04:43:48;6.70;99.90
3756;DHT22;1893;52.526;13.360;2023-02-22T04:46:14;6.70;99.90
3756;DHT22;1893;52.526;13.360;2023-02-22T04:48:40;6.70;99.90
3756;DHT22;1893;52.526;13.360;2023-02-22T04:51:06;6.70;99.90
3756;DHT22;1893;52.526;13.360;2023-02-22T04:53:33;6.70;99.90
3756;DHT22;1893;52.526;13.360;2023-02-22T04:55:58;6.70;99.90
3756;DHT22;1893;52.526;13.360;2023-02-22T04:58:24;6.60;99.90
3756;DHT22;1893;52.526;13.360;2023-02-22T05:00:50;6.60;99.90
3756;DHT22;1893;52.526;13.360;2023-02-22T05:03:15;6.60;99.90
3756;DHT22;1893;52.526;13.360;2023-02-22T05:05:41;6.50;99.90
3756;DHT22;1893;52.526;13.360;2023-02-22T05:08:07;6.50;99.90
3756;DHT22;1893;52.526;13.360;2023-02-22T05:10:32;6.60;99.90
3756;DHT22;1893;52.526;13.360;2023-02-22T05:12:58;6.60;99.90
3756;DHT22;1893;52.526;13.360;2023-02-22T05:15:23;6.60;99.90
3756;DHT22;1893;52.526;13.360;2023-02-22T05:17:50;6.60;99.90
3756;DHT22;1893;52.526;13.360;2023-02-22T05:20:28;6.60;99.90
3756;DHT22;1893;52.526;13.360;2023-02-22T05:22:55;6.70;99.90
3756;DHT22;1893;52.526;13.360;2023-02-22T05:25:21;6.70;99.90
3756;DHT22;1893;52.526;13.360;2023-02-22T05:27:56;6.70;99.90
3756;DHT22;1893;52.526;13.360;2023-02-22T05:30:24;6.80;99.90
3756;DHT22;1893;52.526;13.360;2023-02-22T05:32:51;6.70;99.90
3756;DHT22;1893;52.526;13.360;2023-02-22T05:35:19;6.80;99.90
3756;DHT22;1893;52.526;13.360;2023-02-22T05:37:44;6.80;99.90
3756;DHT22;1893;52.526;13.360;2023-02-22T05:40:11;6.70;99.90
3756;DHT22;1893;52.526;13.360;2023-02-22T05:42:39;6.80;99.90
3756;DHT22;1893;52.526;13.360;2023-02-22T05:45:05;6.80;99.90
3756;DHT22;1893;52.526;13.360;2023-02-22T05:47:31;6.80;99.90
3756;DHT22;1893;52.526;13.360;2023-02-22T05:49:56;6.80;99.90
3756;DHT22;1893;52.526;13.360;2023-02-22T05:52:22;6.80;99.90
3756;DHT22;1893;52.526;13.360;2023-02-22T05:54:48;6.90;99.90
3756;DHT22;1893;52.526;13.360;2023-02-22T05:57:13;6.90;99.90
3756;DHT22;1893;52.526;13.360;2023-02-22T05:59:39;6.90;99.90
3756;DHT22;1893;52.526;13.360;2023-02-22T06:02:04;6.90;99.90
3756;DHT22;1893;52.526;13.360;2023-02-22T06:04:30;6.90;99.90
3756;DHT22;1893;52.526;13.360;2023-02-22T06:06:56;6.90;99.90
3756;DHT22;1893;52.526;13.360;2023-02-22T06:09:21;6.90;99.90
3756;DHT22;1893;52.526;13.360;2023-02-22T06:11:47;6.90;99.90
3756;DHT22;1893;52.526;13.360;2023-02-22T06:14:12;6.90;99.90
3756;DHT22;1893;52.526;13.360;2023-02-22T06:16:38;7.00;99.90
3756;DHT22;1893;52.526;13.360;2023-02-22T06:19:04;7.00;99.90
3756;DHT22;1893;52.526;13.360;2023-02-22T06:21:29;7.00;99.90
3756;DHT22;1893;52.526;13.360;2023-02-22T06:23:55;7.00;99.90
3756;DHT22;1893;52.526;13.360;2023-02-22T06:26:21;7.10;99.90
3756;DHT22;1893;52.526;13.360;2023-02-22T06:28:47;7.10;99.90
3756;DHT22;1893;52.526;13.360;2023-02-22T06:31:13;7.10;99.90
3756;DHT22;1893;52.526;13.360;2023-02-22T06:33:39;7.10;99.90
3756;DHT22;1893;52.526;13.360;2023-02-22T06:36:05;7.10;99.90
3756;DHT22;1893;52.526;13.360;2023-02-22T06:38:31;7.20;99.90
3756;DHT22;1893;52.526;13.360;2023-02-22T06:40:56;7.20;99.90
3756;DHT22;1893;52.526;13.360;2023-02-22T06:43:23;7.20;99.90
3756;DHT22;1893;52.526;13.360;2023-02-22T06:45:52;7.20;99.90
3756;DHT22;1893;52.526;13.360;2023-02-22T06:48:18;7.20;99.90
3756;DHT22;1893;52.526;13.360;2023-02-22T06:50:43;7.30;99.90
3756;DHT22;1893;52.526;13.360;2023-02-22T06:53:09;7.30;99.90
3756;DHT22;1893;52.526;13.360;2023-02-22T06:55:35;7.30;99.90
3756;DHT22;1893;52.526;13.360;2023-02-22T06:58:02;7.40;99.90
3756;DHT22;1893;52.526;13.360;2023-02-22T07:00:30;7.40;99.90
3756;DHT22;1893;52.526;13.360;2023-02-22T07:02:57;7.50;99.90
3756;DHT22;1893;52.526;13.360;2023-02-22T07:05:23;7.50;99.90
3756;DHT22;1893;52.526;13.360;2023-02-22T07:07:51;7.50;99.90
3756;DHT22;1893;52.526;13.360;2023-02-22T07:10:24;7.60;99.90
3756;DHT22;1893;52.526;13.360;2023-02-22T07:12:50;7.60;99.90
3756;DHT22;1893;52.526;13.360;2023-02-22T07:15:20;7.60;99.90
3756;DHT22;1893;52.526;13.360;2023-02-22T07:17:47;7.60;99.90
3756;DHT22;1893;52.526;13.360;2023-02-22T07:20:12;7.60;99.90
3756;DHT22;1893;52.526;13.360;2023-02-22T07:22:38;7.70;99.90
3756;DHT22;1893;52.526;13.360;2023-02-22T07:25:05;7.70;99.90
3756;DHT22;1893;52.526;13.360;2023-02-22T07:27:31;7.80;99.90
3756;DHT22;1893;52.526;13.360;2023-02-22T07:29:57;7.80;99.90
3756;DHT22;1893;52.526;13.360;2023-02-22T07:32:23;7.80;99.90
3756;DHT22;1893;52.526;13.360;2023-02-22T07:34:48;7.90;99.90
3756;DHT22;1893;52.526;13.360;2023-02-22T07:37:14;7.90;99.90
3756;DHT22;1893;52.526;13.360;2023-02-22T07:39:39;8.00;99.90
3756;DHT22;1893;52.526;13.360;2023-02-22T07:42:08;8.00;99.90
3756;DHT22;1893;52.526;13.360;2023-02-22T07:44:33;8.00;99.90
3756;DHT22;1893;52.526;13.360;2023-02-22T07:46:59;8.00;99.90
3756;DHT22;1893;52.526;13.360;2023-02-22T07:49:26;7.90;99.90
3756;DHT22;1893;52.526;13.360;2023-02-22T07:51:52;8.00;99.90
3756;DHT22;1893;52.526;13.360;2023-02-22T07:54:18;8.00;99.90
3756;DHT22;1893;52.526;13.360;2023-02-22T07:56:47;7.90;99.90
3756;DHT22;1893;52.526;13.360;2023-02-22T07:59:14;8.00;99.90
3756;DHT22;1893;52.526;13.360;2023-02-22T08:01:40;8.00;99.90
3756;DHT22;1893;52.526;13.360;2023-02-22T08:04:06;8.00;99.90
3756;DHT22;1893;52.526;13.360;2023-02-22T08:06:31;8.00;99.90
3756;DHT22;1893;52.526;13.360;2023-02-22T08:08:57;8.00;99.90
3756;DHT22;1893;52.526;13.360;2023-02-22T08:11:24;8.10;99.90
3756;DHT22;1893;52.526;13.360;2023-02-22T08:13:49;8.10;99.90
3756;DHT22;1893;52.526;13.360;2023-02-22T08:16:15;8.20;99.90
3756;DHT22;1893;52.526;13.360;2023-02-22T08:18:41;8.10;99.90
3756;DHT22;1893;52.526;13.360;2023-02-22T08:21:06;8.20;99.90
3756;DHT22;1893;52.526;13.360;2023-02-22T08:23:32;8.30;99.90
3756;DHT22;1893;52.526;13.360;2023-02-22T08:26:05;8.30;99.90
3756;DHT22;1893;52.526;13.360;2023-02-22T08:28:31;8.30;99.90
3756;DHT22;1893;52.526;13.360;2023-02-22T08:30:57;8.30;99.90
3756;DHT22;1893;52.526;13.360;2023-02-22T08:33:22;8.20;99.90
3756;DHT22;1893;52.526;13.360;2023-02-22T08:35:49;8.20;99.90
3756;DHT22;1893;52.526;13.360;2023-02-22T08:38:25;8.30;99.90
3756;DHT22;1893;52.526;13.360;2023-02-22T08:40:51;8.20;99.90
3756;DHT22;1893;52.526;13.360;2023-02-22T08:43:18;8.20;99.90
3756;DHT22;1893;52.526;13.360;2023-02-22T08:45:44;8.30;99.90
3756;DHT22;1893;52.526;13.360;2023-02-22T08:48:10;8.30;99.90
3756;DHT22;1893;52.526;13.360;2023-02-22T08:50:36;8.40;99.90
3756;DHT22;1893;52.526;13.360;2023-02-22T08:53:04;8.50;99.90
3756;DHT22;1893;52.526;13.360;2023-02-22T08:55:32;8.40;99.90
3756;DHT22;1893;52.526;13.360;2023-02-22T08:57:59;8.40;99.90
3756;DHT22;1893;52.526;13.360;2023-02-22T09:00:28;8.40;99.90
3756;DHT22;1893;52.526;13.360;2023-02-22T09:02:57;8.40;99.90
3756;DHT22;1893;52.526;13.360;2023-02-22T09:05:23;8.50;99.90
3756;DHT22;1893;52.526;13.360;2023-02-22T09:07:49;8.50;99.90
3756;DHT22;1893;52.526;13.360;2023-02-22T09:10:20;8.40;99.90
3756;DHT22;1893;52.526;13.360;2023-02-22T09:12:52;8.40;99.90
3756;DHT22;1893;52.526;13.360;2023-02-22T09:15:20;8.40;99.90
3756;DHT22;1893;52.526;13.360;2023-02-22T09:17:45;8.50;99.90
3756;DHT22;1893;52.526;13.360;2023-02-22T09:20:11;8.60;99.90
3756;DHT22;1893;52.526;13.360;2023-02-22T09:22:38;8.50;99.90
3756;DHT22;1893;52.526;13.360;2023-02-22T09:25:05;8.50;99.90
3756;DHT22;1893;52.526;13.360;2023-02-22T09:27:31;8.60;99.90
3756;DHT22;1893;52.526;13.360;2023-02-22T09:29:56;8.70;99.90
3756;DHT22;1893;52.526;13.360;2023-02-22T09:32:23;8.70;99.90
3756;DHT22;1893;52.526;13.360;2023-02-22T09:34:52;8.90;99.90
3756;DHT22;1893;52.526;13.360;2023-02-22T09:37:17;8.90;99.90
3756;DHT22;1893;52.526;13.360;2023-02-22T09:39:43;8.90;99.90
3756;DHT22;1893;52.526;13.360;2023-02-22T09:42:24;8.80;99.90
3756;DHT22;1893;52.526;13.360;2023-02-22T09:45:05;8.80;99.90
3756;DHT22;1893;52.526;13.360;2023-02-22T09:47:51;8.80;99.90
3756;DHT22;1893;52.526;13.360;2023-02-22T09:50:21;8.90;99.90
3756;DHT22;1893;52.526;13.360;2023-02-22T09:55:28;9.20;99.90
3756;DHT22;1893;52.526;13.360;2023-02-22T09:58:02;9.30;99.90
3756;DHT22;1893;52.526;13.360;2023-02-22T10:00:35;9.40;99.90
3756;DHT22;1893;52.526;13.360;2023-02-22T10:03:22;9.30;99.90
3756;DHT22;1893;52.526;13.360;2023-02-22T10:06:03;9.40;99.90
3756;DHT22;1893;52.526;13.360;2023-02-22T10:08:33;9.50;99.90
3756;DHT22;1893;52.526;13.360;2023-02-22T10:22:34;10.20;99.90
3756;DHT22;1893;52.526;13.360;2023-02-22T10:25:05;10.40;99.90
3756;DHT22;1893;52.526;13.360;2023-02-22T10:27:41;10.60;99.90
3756;DHT22;1893;52.526;13.360;2023-02-22T10:30:13;10.60;99.90
3756;DHT22;1893;52.526;13.360;2023-02-22T10:32:43;10.30;99.90
3756;DHT22;1893;52.526;13.360;2023-02-22T10:35:23;10.40;99.90
3756;DHT22;1893;52.526;13.360;2023-02-22T10:37:53;10.40;99.90
3756;DHT22;1893;52.526;13.360;2023-02-22T10:40:22;10.30;99.90
3756;DHT22;1893;52.526;13.360;2023-02-22T10:43:00;10.10;99.90
3756;DHT22;1893;52.526;13.360;2023-02-22T10:45:31;10.00;99.90
3756;DHT22;1893;52.526;13.360;2023-02-22T10:48:08;10.10;99.90
3756;DHT22;1893;52.526;13.360;2023-02-22T10:50:37;10.10;99.90
3756;DHT22;1893;52.526;13.360;2023-02-22T10:53:08;10.10;99.90
3756;DHT22;1893;52.526;13.360;2023-02-22T10:55:35;10.00;99.90
3756;DHT22;1893;52.526;13.360;2023-02-22T10:58:05;10.10;99.90
3756;DHT22;1893;52.526;13.360;2023-02-22T11:00:38;10.10;99.90
3756;DHT22;1893;52.526;13.360;2023-02-22T11:03:21;10.00;99.90
3756;DHT22;1893;52.526;13.360;2023-02-22T11:05:48;10.00;99.90
3756;DHT22;1893;52.526;13.360;2023-02-22T11:10:54;10.10;99.90
3756;DHT22;1893;52.526;13.360;2023-02-22T11:13:30;10.10;99.90
3756;DHT22;1893;52.526;13.360;2023-02-22T11:16:18;10.00;99.90
3756;DHT22;1893;52.526;13.360;2023-02-22T11:18:46;9.90;99.90
3756;DHT22;1893;52.526;13.360;2023-02-22T11:21:12;9.90;99.90
3756;DHT22;1893;52.526;13.360;2023-02-22T11:23:45;9.80;99.90
3756;DHT22;1893;52.526;13.360;2023-02-22T11:26:13;10.00;99.90
3756;DHT22;1893;52.526;13.360;2023-02-22T11:28:46;9.80;99.90
3756;DHT22;1893;52.526;13.360;2023-02-22T11:31:18;9.80;99.90
3756;DHT22;1893;52.526;13.360;2023-02-22T11:34:00;9.80;99.90
3756;DHT22;1893;52.526;13.360;2023-02-22T11:36:37;9.90;99.90
3756;DHT22;1893;52.526;13.360;2023-02-22T11:39:26;9.90;99.90
3756;DHT22;1893;52.526;13.360;2023-02-22T11:41:54;9.80;99.90
3756;DHT22;1893;52.526;13.360;2023-02-22T11:44:25;9.90;99.90
3756;DHT22;1893;52.526;13.360;2023-02-22T11:46:56;9.80;99.90
3756;DHT22;1893;52.526;13.360;2023-02-22T11:49:34;9.80;99.90
3756;DHT22;1893;52.526;13.360;2023-02-22T11:54:44;9.80;99.90
3756;DHT22;1893;52.526;13.360;2023-02-22T12:08:36;9.80;99.90
3756;DHT22;1893;52.526;13.360;2023-02-22T12:17:06;9.90;99.90
3756;DHT22;1893;52.526;13.360;2023-02-22T12:19:34;10.00;99.90
3756;DHT22;1893;52.526;13.360;2023-02-22T12:22:50;10.00;99.90
3756;DHT22;1893;52.526;13.360;2023-02-22T12:25:20;10.00;99.90
3756;DHT22;1893;52.526;13.360;2023-02-22T12:27:53;10.00;99.90
3756;DHT22;1893;52.526;13.360;2023-02-22T12:30:29;10.00;99.90
3756;DHT22;1893;52.526;13.360;2023-02-22T12:33:03;10.00;99.90
3756;DHT22;1893;52.526;13.360;2023-02-22T12:35:36;10.00;99.90
3756;DHT22;1893;52.526;13.360;2023-02-22T12:40:45;10.30;99.90
3756;DHT22;1893;52.526;13.360;2023-02-22T12:43:18;10.40;99.90
3756;DHT22;1893;52.526;13.360;2023-02-22T12:57:00;10.30;99.90
3756;DHT22;1893;52.526;13.360;2023-02-22T12:59:51;10.10;99.90
3756;DHT22;1893;52.526;13.360;2023-02-22T13:02:47;10.10;99.90
3756;DHT22;1893;52.526;13.360;2023-02-22T13:05:18;10.00;99.90
3756;DHT22;1893;52.526;13.360;2023-02-22T13:08:00;10.10;99.90
3756;DHT22;1893;52.526;13.360;2023-02-22T13:10:30;10.10;99.90
3756;DHT22;1893;52.526;13.360;2023-02-22T13:15:42;10.10;99.90
3756;DHT22;1893;52.526;13.360;2023-02-22T13:18:12;10.00;99.90
3756;DHT22;1893;52.526;13.360;2023-02-22T13:20:46;10.20;99.90
3756;DHT22;1893;52.526;13.360;2023-02-22T13:28:48;10.10;99.90
3756;DHT22;1893;52.526;13.360;2023-02-22T13:31:44;10.10;99.90
3756;DHT22;1893;52.526;13.360;2023-02-22T13:34:28;10.20;99.90
3756;DHT22;1893;52.526;13.360;2023-02-22T13:56:44;10.20;99.90
3756;DHT22;1893;52.526;13.360;2023-02-22T14:01:49;10.30;99.90
3756;DHT22;1893;52.526;13.360;2023-02-22T14:06:45;10.20;99.90
3756;DHT22;1893;52.526;13.360;2023-02-22T14:09:41;10.10;99.90
3756;DHT22;1893;52.526;13.360;2023-02-22T14:17:35;10.10;99.90
3756;DHT22;1893;52.526;13.360;2023-02-22T14:20:26;10.10;99.90
3756;DHT22;1893;52.526;13.360;2023-02-22T14:22:56;10.10;99.90
3756;DHT22;1893;52.526;13.360;2023-02-22T14:25:32;10.20;99.90
3756;DHT22;1893;52.526;13.360;2023-02-22T14:27:58;10.20;99.90
3756;DHT22;1893;52.526;13.360;2023-02-22T14:30:27;10.00;99.90
3756;DHT22;1893;52.526;13.360;2023-02-22T14:32:55;10.00;99.90
3756;DHT22;1893;52.526;13.360;2023-02-22T14:35:21;10.00;99.90
3756;DHT22;1893;52.526;13.360;2023-02-22T14:37:53;10.00;99.90
3756;DHT22;1893;52.526;13.360;2023-02-22T14:42:48;9.90;99.90
3756;DHT22;1893;52.526;13.360;2023-02-22T14:47:58;9.80;99.90
3756;DHT22;1893;52.526;13.360;2023-02-22T14:50:42;9.90;99.90
3756;DHT22;1893;52.526;13.360;2023-02-22T14:55:51;10.00;99.90
3756;DHT22;1893;52.526;13.360;2023-02-22T14:58:24;9.90;99.90
3756;DHT22;1893;52.526;13.360;2023-02-22T15:00:53;10.00;99.90
3756;DHT22;1893;52.526;13.360;2023-02-22T15:05:47;9.90;99.90
3756;DHT22;1893;52.526;13.360;2023-02-22T15:08:15;10.00;99.90
3756;DHT22;1893;52.526;13.360;2023-02-22T15:10:47;9.80;99.90
3756;DHT22;1893;52.526;13.360;2023-02-22T15:13:19;9.70;99.90
3756;DHT22;1893;52.526;13.360;2023-02-22T15:15:54;9.70;99.90
3756;DHT22;1893;52.526;13.360;2023-02-22T15:18:27;9.70;99.90
3756;DHT22;1893;52.526;13.360;2023-02-22T15:21:06;9.70;99.90
3756;DHT22;1893;52.526;13.360;2023-02-22T15:23:46;9.70;99.90
3756;DHT22;1893;52.526;13.360;2023-02-22T15:26:18;9.60;99.90
3756;DHT22;1893;52.526;13.360;2023-02-22T15:28:44;9.60;99.90
3756;DHT22;1893;52.526;13.360;2023-02-22T15:31:35;9.70;99.90
3756;DHT22;1893;52.526;13.360;2023-02-22T15:36:40;9.70;99.90
3756;DHT22;1893;52.526;13.360;2023-02-22T15:39:27;9.60;99.90
3756;DHT22;1893;52.526;13.360;2023-02-22T15:44:40;9.50;99.90
3756;DHT22;1893;52.526;13.360;2023-02-22T15:49:42;9.60;99.90
3756;DHT22;1893;52.526;13.360;2023-02-22T15:54:43;9.60;99.90
3756;DHT22;1893;52.526;13.360;2023-02-22T15:57:12;9.50;99.90
3756;DHT22;1893;52.526;13.360;2023-02-22T15:59:42;9.50;99.90
3756;DHT22;1893;52.526;13.360;2023-02-22T16:02:40;9.50;99.90
3756;DHT22;1893;52.526;13.360;2023-02-22T16:05:08;9.40;99.90
3756;DHT22;1893;52.526;13.360;2023-02-22T16:07:48;9.40;99.90
3756;DHT22;1893;52.526;13.360;2023-02-22T16:10:25;9.40;99.90
3756;DHT22;1893;52.526;13.360;2023-02-22T16:13:06;9.40;99.90
3756;DHT22;1893;52.526;13.360;2023-02-22T16:15:32;9.40;99.90
3756;DHT22;1893;52.526;13.360;2023-02-22T16:18:16;9.30;99.90
3756;DHT22;1893;52.526;13.360;2023-02-22T16:20:42;9.20;99.90
3756;DHT22;1893;52.526;13.360;2023-02-22T16:23:25;9.30;99.90
3756;DHT22;1893;52.526;13.360;2023-02-22T16:26:04;9.20;99.90
3756;DHT22;1893;52.526;13.360;2023-02-22T16:28:30;9.20;99.90
3756;DHT22;1893;52.526;13.360;2023-02-22T16:30:59;9.20;99.90
3756;DHT22;1893;52.526;13.360;2023-02-22T16:33:24;9.20;99.90
3756;DHT22;1893;52.526;13.360;2023-02-22T16:35:54;9.10;99.90
3756;DHT22;1893;52.526;13.360;2023-02-22T16:38:22;9.10;99.90
3756;DHT22;1893;52.526;13.360;2023-02-22T16:40:53;9.10;99.90
3756;DHT22;1893;52.526;13.360;2023-02-22T16:43:22;9.00;99.90
3756;DHT22;1893;52.526;13.360;2023-02-22T16:45:48;9.00;99.90
3756;DHT22;1893;52.526;13.360;2023-02-22T16:48:21;8.90;99.90
3756;DHT22;1893;52.526;13.360;2023-02-22T16:50:48;8.90;99.90
3756;DHT22;1893;52.526;13.360;2023-02-22T16:53:15;8.90;99.90
3756;DHT22;1893;52.526;13.360;2023-02-22T16:55:44;8.80;99.90
3756;DHT22;1893;52.526;13.360;2023-02-22T16:58:11;8.80;99.90
3756;DHT22;1893;52.526;13.360;2023-02-22T17:00:39;8.80;99.90
3756;DHT22;1893;52.526;13.360;2023-02-22T17:03:12;8.80;99.90
3756;DHT22;1893;52.526;13.360;2023-02-22T17:05:38;8.80;99.90
3756;DHT22;1893;52.526;13.360;2023-02-22T17:08:04;8.80;99.90
3756;DHT22;1893;52.526;13.360;2023-02-22T17:10:30;8.70;99.90
3756;DHT22;1893;52.526;13.360;2023-02-22T17:12:57;8.70;99.90
3756;DHT22;1893;52.526;13.360;2023-02-22T17:15:26;8.70;99.90
3756;DHT22;1893;52.526;13.360;2023-02-22T17:17:53;8.70;99.90
3756;DHT22;1893;52.526;13.360;2023-02-22T17:20:20;8.60;99.90
3756;DHT22;1893;52.526;13.360;2023-02-22T17:22:59;8.60;99.90
3756;DHT22;1893;52.526;13.360;2023-02-22T17:25:36;8.70;99.90
3756;DHT22;1893;52.526;13.360;2023-02-22T17:28:02;8.60;99.90
3756;DHT22;1893;52.526;13.360;2023-02-22T17:30:27;8.60;99.90
3756;DHT22;1893;52.526;13.360;2023-02-22T17:32:55;8.60;99.90
3756;DHT22;1893;52.526;13.360;2023-02-22T17:35:29;8.60;99.90
3756;DHT22;1893;52.526;13.360;2023-02-22T17:37:55;8.70;99.90
3756;DHT22;1893;52.526;13.360;2023-02-22T17:40:22;8.50;99.90
3756;DHT22;1893;52.526;13.360;2023-02-22T17:42:47;8.50;99.90
3756;DHT22;1893;52.526;13.360;2023-02-22T17:45:22;8.50;99.90
3756;DHT22;1893;52.526;13.360;2023-02-22T17:47:49;8.40;99.90
3756;DHT22;1893;52.526;13.360;2023-02-22T17:50:16;8.40;99.90
3756;DHT22;1893;52.526;13.360;2023-02-22T17:52:42;8.40;99.90
3756;DHT22;1893;52.526;13.360;2023-02-22T17:55:10;8.40;99.90
3756;DHT22;1893;52.526;13.360;2023-02-22T17:57:36;8.40;99.90
3756;DHT22;1893;52.526;13.360;2023-02-22T18:00:05;8.40;99.90
3756;DHT22;1893;52.526;13.360;2023-02-22T18:02:41;8.40;99.90
3756;DHT22;1893;52.526;13.360;2023-02-22T18:05:09;8.40;99.90
3756;DHT22;1893;52.526;13.360;2023-02-22T18:07:35;8.30;99.90
3756;DHT22;1893;52.526;13.360;2023-02-22T18:10:01;8.30;99.90
3756;DHT22;1893;52.526;13.360;2023-02-22T18:12:30;8.30;99.90
3756;DHT22;1893;52.526;13.360;2023-02-22T18:14:56;8.30;99.90
3756;DHT22;1893;52.526;13.360;2023-02-22T18:17:21;8.20;99.90
3756;DHT22;1893;52.526;13.360;2023-02-22T18:19:47;8.30;99.90
3756;DHT22;1893;52.526;13.360;2023-02-22T18:22:13;8.20;99.90
3756;DHT22;1893;52.526;13.360;2023-02-22T18:24:38;8.20;99.90
3756;DHT22;1893;52.526;13.360;2023-02-22T18:27:04;8.20;99.90
3756;DHT22;1893;52.526;13.360;2023-02-22T18:29:32;8.20;99.90
3756;DHT22;1893;52.526;13.360;2023-02-22T18:31:58;8.20;99.90
3756;DHT22;1893;52.526;13.360;2023-02-22T18:34:24;8.20;99.90
3756;DHT22;1893;52.526;13.360;2023-02-22T18:36:51;8.10;99.90
3756;DHT22;1893;52.526;13.360;2023-02-22T18:39:19;8.10;99.90
3756;DHT22;1893;52.526;13.360;2023-02-22T18:41:45;8.10;99.90
3756;DHT22;1893;52.526;13.360;2023-02-22T18:44:16;8.10;99.90
3756;DHT22;1893;52.526;13.360;2023-02-22T18:46:42;8.10;99.90